Time;durP1;ratioP1;P1;durP2;ratioP2;P2;SDS_P1;SDS_P2;PMS_P1;PMS_P2;Temp;Humidity;BMP_temperature;BMP_pressure;BME280_temperature;BME280_humidity;BME280_pressure;Samples;Min_cycle;Max_cycle;Signal;HPM_P1;HPM_P2
2020/12/09 00:01:53;;;;;;;11.12;7.58;;;;;;;6.04;45.67;100892.20;1798714;78;21169;-75
2020/12/09 00:04:39;;;;;;;13.20;8.18;;;;;;;5.96;45.61;100878.73;1800536;78;21169;-72
2020/12/09 00:07:06;;;;;;;13.35;9.13;;;;;;;6.02;45.57;100884.40;1787121;78;21414;-73
2020/12/09 00:09:33;;;;;;;9.40;6.92;;;;;;;6.02;45.55;100883.08;1782153;79;21097;-73
2020/12/09 00:12:01;;;;;;;11.00;8.08;;;;;;;6.01;45.57;100872.66;1789664;78;21146;-73
2020/12/09 00:14:28;;;;;;;11.35;7.80;;;;;;;6.01;45.54;100875.30;1810726;78;21138;-75
2020/12/09 00:17:31;;;;;;;11.55;8.33;;;;;;;6.00;45.51;100873.12;1804223;77;21158;-74
2020/12/09 00:19:59;;;;;;;12.63;7.60;;;;;;;6.00;45.50;100874.92;1802784;78;21327;-72
2020/12/09 00:22:35;;;;;;;10.60;7.60;;;;;;;5.99;45.47;100874.54;1805941;77;21258;-73
2020/12/09 00:25:04;;;;;;;11.03;7.55;;;;;;;5.93;45.48;100866.59;1791269;79;21593;-74
2020/12/09 00:27:35;;;;;;;12.95;8.00;;;;;;;5.97;45.48;100874.67;1784018;79;21585;-72
2020/12/09 00:30:05;;;;;;;13.10;8.40;;;;;;;5.96;45.45;100875.61;1783991;79;21463;-73
2020/12/09 00:32:36;;;;;;;12.05;7.47;;;;;;;5.96;45.40;100879.56;1790674;79;22256;-73
2020/12/09 00:35:08;;;;;;;11.30;7.37;;;;;;;5.97;45.39;100881.72;1784316;79;21121;-73
2020/12/09 00:37:35;;;;;;;12.30;8.13;;;;;;;5.96;45.40;100877.41;1784798;79;21147;-73
2020/12/09 00:40:05;;;;;;;10.98;7.50;;;;;;;5.94;45.38;100880.13;1785818;79;21743;-73
2020/12/09 00:42:33;;;;;;;12.75;7.75;;;;;;;5.94;45.33;100874.85;1786201;79;21146;-73
2020/12/09 00:45:00;;;;;;;11.25;7.75;;;;;;;5.94;45.33;100877.48;1791773;79;21379;-73
2020/12/09 00:47:28;;;;;;;11.00;7.30;;;;;;;5.95;45.32;100878.33;1784962;79;21171;-73
2020/12/09 00:50:38;;;;;;;11.50;7.33;;;;;;;5.96;45.30;100876.09;1787486;79;21141;-73
2020/12/09 00:53:06;;;;;;;10.30;6.65;;;;;;;5.95;45.29;100867.35;1784011;79;21133;-73
2020/12/09 00:55:34;;;;;;;10.20;7.10;;;;;;;5.93;45.27;100868.36;1757659;79;21173;-72
2020/12/09 00:58:01;;;;;;;9.08;6.40;;;;;;;5.93;45.29;100868.36;1784202;79;21506;-72
2020/12/09 01:00:29;;;;;;;11.97;6.83;;;;;;;5.91;45.24;100860.58;1798090;79;21203;-75
2020/12/09 01:03:09;;;;;;;11.30;7.37;;;;;;;5.95;45.25;100854.16;1767504;78;28574;-73
2020/12/09 01:05:36;;;;;;;10.25;7.25;;;;;;;5.91;45.24;100864.54;1743855;81;21160;-75
2020/12/09 01:08:04;;;;;;;10.23;6.78;;;;;;;5.92;45.24;100855.66;1719400;82;21720;-73
2020/12/09 01:10:31;;;;;;;9.55;6.90;;;;;;;5.92;45.21;100850.38;1758097;80;21192;-74
2020/12/09 01:12:58;;;;;;;11.45;7.00;;;;;;;5.93;45.17;100854.72;1737826;82;21186;-73
2020/12/09 01:15:26;;;;;;;9.80;6.55;;;;;;;5.92;45.14;100841.16;1735309;82;21162;-74
2020/12/09 01:17:53;;;;;;;10.70;7.65;;;;;;;5.93;45.15;100844.17;1737643;82;21154;-74
2020/12/09 01:20:22;;;;;;;8.70;6.33;;;;;;;5.94;45.13;100836.61;1739355;82;21402;-75
2020/12/09 01:22:49;;;;;;;10.93;6.97;;;;;;;5.93;45.13;100839.34;1730308;82;21526;-74
2020/12/09 01:25:17;;;;;;;9.23;7.00;;;;;;;5.94;45.11;100831.33;1735583;82;21170;-73
2020/12/09 01:27:44;;;;;;;11.33;7.22;;;;;;;5.95;45.08;100831.74;1722542;82;21148;-72
2020/12/09 01:30:12;;;;;;;9.95;6.78;;;;;;;5.95;45.05;100830.84;1735370;82;21204;-72
2020/12/09 01:32:39;;;;;;;8.43;6.42;;;;;;;5.95;45.04;100835.70;1720668;82;21380;-73
2020/12/09 01:35:07;;;;;;;8.98;6.83;;;;;;;5.96;45.06;100833.89;1766361;80;21190;-72
2020/12/09 01:37:34;;;;;;;10.08;6.55;;;;;;;5.96;45.02;100832.09;1760486;80;21130;-72
2020/12/09 01:40:02;;;;;;;8.28;6.58;;;;;;;5.96;45.00;100823.34;1772528;80;21161;-72
2020/12/09 01:42:31;;;;;;;11.25;6.60;;;;;;;5.96;44.99;100836.05;1775185;80;21163;-71
2020/12/09 01:44:59;;;;;;;9.53;6.67;;;;;;;5.96;44.94;100840.49;1773095;80;21426;-73
2020/12/09 01:47:26;;;;;;;9.50;6.47;;;;;;;5.95;44.95;100839.66;1772054;80;21177;-72
2020/12/09 01:49:53;;;;;;;8.20;6.00;;;;;;;5.95;44.96;100834.80;1760991;80;21200;-72
2020/12/09 01:52:21;;;;;;;9.85;7.10;;;;;;;5.95;44.94;100838.34;1772073;80;21495;-74
2020/12/09 01:54:50;;;;;;;10.60;7.17;;;;;;;5.94;44.94;100836.61;1770913;80;21133;-72
2020/12/09 01:57:18;;;;;;;9.00;6.67;;;;;;;5.95;44.94;100837.02;1773674;80;21451;-73
2020/12/09 01:59:46;;;;;;;9.08;6.62;;;;;;;5.96;44.96;100839.17;1760059;80;21149;-73
2020/12/09 02:02:13;;;;;;;8.60;6.45;;;;;;;5.95;44.92;100840.08;1768788;80;21197;-73
2020/12/09 02:04:41;;;;;;;9.08;6.37;;;;;;;5.96;44.86;100838.69;1781385;80;21134;-72
2020/12/09 02:07:08;;;;;;;9.50;6.70;;;;;;;5.96;44.86;100842.64;1779244;80;21313;-72
2020/12/09 02:09:36;;;;;;;9.75;6.22;;;;;;;5.88;44.85;100827.34;1774154;80;21377;-73
2020/12/09 02:12:04;;;;;;;9.98;6.60;;;;;;;5.95;44.85;100843.61;1774471;80;21154;-73
2020/12/09 02:14:32;;;;;;;10.20;6.78;;;;;;;5.96;44.85;100838.69;1775459;80;21158;-73
2020/12/09 02:16:59;;;;;;;11.80;7.10;;;;;;;5.97;44.83;100846.11;1763094;80;21173;-73
2020/12/09 02:19:27;;;;;;;9.78;7.15;;;;;;;5.95;44.84;100844.93;1773567;80;21145;-72
2020/12/09 02:21:54;;;;;;;9.63;6.47;;;;;;;5.95;44.84;100846.67;1779385;80;21379;-73
2020/12/09 02:24:22;;;;;;;8.70;5.92;;;;;;;5.95;44.86;100844.93;1778909;80;21197;-71
2020/12/09 02:26:50;;;;;;;8.53;6.15;;;;;;;5.95;44.83;100838.34;1775113;80;21122;-72
2020/12/09 02:29:19;;;;;;;9.13;6.45;;;;;;;5.95;44.84;100842.30;1772541;80;21182;-73
2020/12/09 02:31:46;;;;;;;8.35;6.28;;;;;;;5.95;44.85;100842.30;1758603;80;21174;-71
2020/12/09 02:34:16;;;;;;;10.28;6.20;;;;;;;5.97;44.82;100843.47;1761551;80;21415;-70
2020/12/09 02:36:45;;;;;;;8.58;6.62;;;;;;;5.95;44.79;100835.70;1780756;80;21186;-70
2020/12/09 02:39:12;;;;;;;9.33;6.35;;;;;;;5.96;44.80;100835.22;1773326;80;21548;-73
2020/12/09 02:41:40;;;;;;;7.92;6.42;;;;;;;5.97;44.83;100840.39;1769486;80;21124;-73
2020/12/09 02:44:07;;;;;;;9.10;6.20;;;;;;;5.98;44.83;100846.01;1770451;80;21154;-71
2020/12/09 02:46:34;;;;;;;8.33;6.47;;;;;;;5.99;44.82;100834.97;1766522;80;21411;-73
2020/12/09 02:49:02;;;;;;;7.45;5.90;;;;;;;6.00;44.77;100839.31;1767842;80;21141;-73
2020/12/09 02:51:29;;;;;;;9.18;6.17;;;;;;;6.00;44.76;100839.31;1748780;80;21174;-74
2020/12/09 02:53:57;;;;;;;9.10;6.20;;;;;;;6.01;44.75;100850.23;1765218;80;21136;-74
2020/12/09 02:56:24;;;;;;;8.45;6.25;;;;;;;6.01;44.79;100842.33;1768927;80;21159;-73
2020/12/09 02:58:51;;;;;;;8.05;5.90;;;;;;;6.01;44.79;100851.08;1765058;80;21815;-74
2020/12/09 03:01:19;;;;;;;9.03;6.08;;;;;;;6.02;44.74;100849.27;1744093;80;21174;-74
2020/12/09 03:03:46;;;;;;;9.03;6.83;;;;;;;6.01;44.73;100849.75;1741525;81;21137;-73
2020/12/09 03:06:16;;;;;;;7.97;5.72;;;;;;;6.01;44.72;100851.08;1744312;81;21200;-74
2020/12/09 03:08:43;;;;;;;9.98;6.65;;;;;;;6.01;44.71;100855.03;1743133;82;21185;-74
2020/12/09 03:11:11;;;;;;;8.83;6.80;;;;;;;6.01;44.76;100855.52;1749877;81;21443;-72
2020/12/09 03:13:38;;;;;;;8.93;6.33;;;;;;;6.01;44.72;100860.80;1745735;82;21221;-73
2020/12/09 03:16:06;;;;;;;8.28;6.12;;;;;;;6.01;44.69;100856.84;1738412;81;21152;-74
2020/12/09 03:18:33;;;;;;;8.33;5.92;;;;;;;6.02;44.72;100863.30;1708758;83;21207;-74
2020/12/09 03:21:06;;;;;;;9.23;6.28;;;;;;;6.03;44.73;100858.88;1704055;82;21168;-73
2020/12/09 03:23:30;;;;;;;6.78;5.62;;;;;;;6.02;44.69;100856.70;1709251;82;21425;-73
2020/12/09 03:25:58;;;;;;;8.48;6.30;;;;;;;6.03;44.70;100861.52;1709097;82;21161;-74
2020/12/09 03:28:25;;;;;;;8.13;5.90;;;;;;;6.02;44.77;100860.66;1708542;82;21173;-72
2020/12/09 03:30:53;;;;;;;8.05;6.03;;;;;;;6.03;44.66;100859.72;1710044;82;22175;-72
2020/12/09 03:33:20;;;;;;;8.40;6.15;;;;;;;6.03;44.70;100853.13;1700138;82;21230;-73
2020/12/09 03:35:48;;;;;;;10.00;7.28;;;;;;;6.03;44.69;100853.13;1709349;82;21408;-72
2020/12/09 03:38:16;;;;;;;8.80;6.30;;;;;;;6.05;44.68;100853.85;1709514;83;21153;-73
2020/12/09 03:40:43;;;;;;;8.00;6.03;;;;;;;6.04;44.63;100846.87;1709616;82;21184;-72
2020/12/09 03:43:10;;;;;;;9.15;6.22;;;;;;;6.04;44.63;100843.41;1710368;82;21176;-73
2020/12/09 03:45:38;;;;;;;8.63;6.08;;;;;;;6.05;44.69;100849.06;1707529;82;21563;-73
2020/12/09 03:48:05;;;;;;;8.68;6.17;;;;;;;6.06;44.64;100848.09;1705940;82;21216;-72
2020/12/09 03:50:32;;;;;;;7.08;5.67;;;;;;;6.06;44.64;100841.01;1709278;83;21507;-73
2020/12/09 03:53:00;;;;;;;8.98;6.60;;;;;;;6.06;44.63;100842.33;1698989;82;21165;-73
2020/12/09 03:55:28;;;;;;;8.53;5.87;;;;;;;6.06;44.62;100837.05;1709749;82;22191;-74
2020/12/09 03:57:59;;;;;;;7.60;5.30;;;;;;;6.07;44.62;100838.75;1707618;82;21621;-74
2020/12/09 04:00:25;;;;;;;7.67;5.58;;;;;;;6.07;44.63;100847.98;1701129;82;21644;-74
2020/12/09 04:02:52;;;;;;;7.95;6.00;;;;;;;6.07;44.62;100835.28;1758240;80;21138;-74
2020/12/09 04:05:19;;;;;;;8.55;6.10;;;;;;;6.08;44.59;100835.62;1764610;80;21090;-72
2020/12/09 04:07:47;;;;;;;9.05;6.42;;;;;;;6.07;44.62;100830.84;1754972;80;21190;-73
2020/12/09 04:10:14;;;;;;;8.13;5.83;;;;;;;6.06;44.61;100827.82;1756071;80;21625;-72
2020/12/09 04:12:41;;;;;;;8.90;6.15;;;;;;;6.07;44.61;100824.23;1768532;80;21377;-73
2020/12/09 04:15:09;;;;;;;8.20;6.15;;;;;;;6.07;44.60;100830.00;1752364;80;21157;-72
2020/12/09 04:17:37;;;;;;;7.55;5.60;;;;;;;6.08;44.62;100826.39;1775078;80;21250;-74
2020/12/09 04:20:05;;;;;;;7.87;5.87;;;;;;;6.07;44.61;100828.69;1756877;80;21149;-73
2020/12/09 04:22:32;;;;;;;8.78;5.97;;;;;;;6.08;44.62;100832.53;1761801;80;21130;-73
2020/12/09 04:25:00;;;;;;;7.97;5.78;;;;;;;6.09;44.62;100833.37;1761295;80;21335;-73
2020/12/09 04:27:28;;;;;;;8.50;5.90;;;;;;;6.09;44.60;100827.61;1773448;80;21177;-74
2020/12/09 04:29:55;;;;;;;6.67;5.33;;;;;;;6.09;44.55;100832.88;1769648;80;21170;-72
2020/12/09 04:32:22;;;;;;;8.10;5.58;;;;;;;6.10;44.53;100833.27;1770819;80;21186;-73
2020/12/09 04:34:50;;;;;;;7.65;5.67;;;;;;;6.11;44.57;100832.78;1765698;80;21595;-74
2020/12/09 04:37:17;;;;;;;10.45;6.42;;;;;;;6.12;44.57;100838.41;1766998;80;21350;-74
2020/12/09 04:39:45;;;;;;;7.87;5.53;;;;;;;6.12;44.55;100834.44;1772922;80;21618;-73
2020/12/09 04:42:23;;;;;;;7.10;5.30;;;;;;;6.13;44.52;100840.59;1772279;80;21614;-73
2020/12/09 04:44:52;;;;;;;8.38;5.67;;;;;;;6.12;44.52;100837.08;1729809;82;21148;-72
2020/12/09 04:47:33;;;;;;;9.23;5.87;;;;;;;6.12;44.51;100838.41;1722392;82;21141;-71
2020/12/09 04:50:11;;;;;;;8.63;6.12;;;;;;;6.12;44.56;100846.31;1724302;82;21385;-71
2020/12/09 04:53:04;;;;;;;7.05;5.05;;;;;;;6.13;44.51;100828.23;1749842;81;21127;-72
2020/12/09 04:55:32;;;;;;;8.25;6.03;;;;;;;6.12;44.52;100849.44;1765209;80;21185;-74
2020/12/09 04:58:16;;;;;;;7.50;4.97;;;;;;;6.09;44.58;100834.20;1773151;80;21594;-74
2020/12/09 05:00:45;;;;;;;8.63;5.78;;;;;;;6.08;44.60;100845.73;1777062;80;21181;-73
2020/12/09 05:03:19;;;;;;;8.53;5.65;;;;;;;6.08;44.59;100849.69;1766834;80;21369;-73
2020/12/09 05:05:47;;;;;;;8.45;5.92;;;;;;;6.09;44.58;100847.88;1756752;80;21165;-72
2020/12/09 05:08:22;;;;;;;6.67;5.40;;;;;;;6.09;44.61;100846.08;1760652;80;21661;-73
2020/12/09 05:10:52;;;;;;;7.78;5.42;;;;;;;6.09;44.58;100852.67;1777905;80;21134;-72
2020/12/09 05:13:25;;;;;;;7.10;4.95;;;;;;;6.09;44.60;100846.08;1778947;80;21159;-72
2020/12/09 05:15:56;;;;;;;8.63;5.22;;;;;;;6.09;44.59;100850.52;1768639;80;21360;-72
2020/12/09 05:18:37;;;;;;;8.75;5.90;;;;;;;6.09;44.62;100849.20;1775167;80;21185;-72
2020/12/09 05:21:19;;;;;;;7.10;5.33;;;;;;;6.08;44.62;100839.13;1771633;80;21169;-71
2020/12/09 05:23:58;;;;;;;7.05;5.50;;;;;;;6.07;44.60;100844.03;1767618;80;21165;-70
2020/12/09 05:26:31;;;;;;;6.45;4.97;;;;;;;6.08;44.64;100846.18;1756956;80;21229;-73
2020/12/09 05:29:10;;;;;;;6.08;5.33;;;;;;;6.08;44.67;100848.36;1758831;80;21378;-73
2020/12/09 05:31:41;;;;;;;8.05;5.83;;;;;;;6.08;44.63;100852.32;1755975;80;21168;-73
2020/12/09 05:34:25;;;;;;;8.03;5.55;;;;;;;6.07;44.67;100855.90;1771120;80;21184;-72
2020/12/09 05:37:10;;;;;;;7.62;5.78;;;;;;;6.08;44.67;100856.28;1770663;80;21189;-74
2020/12/09 05:39:52;;;;;;;8.85;5.85;;;;;;;6.08;44.64;100858.05;1765791;80;21155;-72
2020/12/09 05:42:23;;;;;;;7.42;5.50;;;;;;;6.08;44.67;100863.33;1766272;80;21502;-74
2020/12/09 05:44:50;;;;;;;7.55;5.67;;;;;;;6.07;44.68;100858.53;1765131;80;21134;-73
2020/12/09 05:47:18;;;;;;;8.23;6.53;;;;;;;6.08;44.64;100856.73;1771510;80;21160;-72
2020/12/09 05:49:45;;;;;;;8.70;6.00;;;;;;;6.08;44.68;100852.32;1752045;80;21137;-74
2020/12/09 05:52:15;;;;;;;8.30;5.90;;;;;;;6.09;44.66;100855.30;1769770;80;21170;-74
2020/12/09 05:54:50;;;;;;;6.92;5.03;;;;;;;6.10;44.69;100853.50;1773851;80;22334;-74
2020/12/09 05:57:24;;;;;;;8.25;5.92;;;;;;;6.10;44.65;100851.73;1769075;80;22253;-74
2020/12/09 05:59:53;;;;;;;7.95;5.75;;;;;;;6.10;44.66;100858.33;1743749;82;21207;-74
2020/12/09 06:02:22;;;;;;;7.90;5.90;;;;;;;6.11;44.71;100851.25;1719100;82;21188;-74
2020/12/09 06:04:58;;;;;;;6.72;4.85;;;;;;;6.12;44.66;100852.08;1728292;82;21166;-74
2020/12/09 06:07:27;;;;;;;7.03;4.87;;;;;;;6.13;44.65;100851.14;1719179;83;21374;-73
2020/12/09 06:10:13;;;;;;;7.90;5.42;;;;;;;6.14;44.69;100854.13;1720495;82;21210;-72
2020/12/09 06:12:56;;;;;;;8.73;5.83;;;;;;;6.13;44.71;100851.14;1713627;82;21650;-75
2020/12/09 06:15:30;;;;;;;7.97;5.65;;;;;;;6.13;44.65;100848.50;1725271;82;21245;-75
2020/12/09 06:18:11;;;;;;;7.60;5.55;;;;;;;6.13;44.65;100859.89;1726206;82;21182;-74
2020/12/09 06:20:40;;;;;;;8.65;5.70;;;;;;;6.13;44.74;100864.33;1738949;82;21198;-73
2020/12/09 06:23:12;;;;;;;7.55;5.67;;;;;;;6.13;44.67;100854.61;1722973;82;21217;-74
2020/12/09 06:25:44;;;;;;;8.25;5.10;;;;;;;6.13;44.71;100863.84;1720081;82;21750;-75
2020/12/09 06:28:19;;;;;;;8.58;5.62;;;;;;;6.13;44.68;100859.05;1719773;82;21422;-74
2020/12/09 06:30:48;;;;;;;7.95;6.08;;;;;;;6.13;44.68;100863.84;1725804;82;21177;-73
2020/12/09 06:33:36;;;;;;;8.45;6.12;;;;;;;6.13;44.70;100861.69;1723598;82;21362;-73
2020/12/09 06:36:24;;;;;;;8.18;5.67;;;;;;;6.14;44.75;100856.77;1746487;82;21805;-73
2020/12/09 06:39:16;;;;;;;9.28;5.70;;;;;;;6.13;44.70;100854.61;1722990;82;21207;-73
2020/12/09 06:42:01;;;;;;;8.13;5.53;;;;;;;6.14;44.73;100846.21;1734894;82;21210;-72
2020/12/09 06:44:30;;;;;;;8.05;6.05;;;;;;;6.13;44.78;100851.97;1718314;82;21162;-71
2020/12/09 06:46:58;;;;;;;9.75;5.83;;;;;;;6.12;44.79;100857.36;1738325;82;21372;-77
2020/12/09 06:49:35;;;;;;;8.93;5.30;;;;;;;6.14;44.78;100856.77;1722523;82;21198;-76
2020/12/09 06:52:14;;;;;;;8.03;6.25;;;;;;;6.14;44.78;100855.45;1719862;82;21598;-75
2020/12/09 06:54:47;;;;;;;8.43;5.65;;;;;;;6.15;44.78;100855.83;1738971;82;21685;-76
2020/12/09 06:57:29;;;;;;;7.25;5.72;;;;;;;6.17;44.71;100867.11;1736955;82;21222;-75
2020/12/09 07:00:18;;;;;;;7.03;5.40;;;;;;;6.16;44.79;100864.95;1719486;82;22532;-75
2020/12/09 07:02:51;;;;;;;7.58;5.90;;;;;;;6.16;44.79;100868.05;1728827;82;21241;-73
2020/12/09 07:05:26;;;;;;;8.28;5.87;;;;;;;6.17;44.78;100869.26;1730376;82;21220;-73
2020/12/09 07:08:02;;;;;;;10.70;5.87;;;;;;;6.18;44.78;100871.41;1746319;82;21189;-74
2020/12/09 07:10:30;;;;;;;9.68;5.83;;;;;;;6.18;44.79;100867.45;1746361;82;21149;-75
2020/12/09 07:13:03;;;;;;;8.35;5.95;;;;;;;6.18;44.82;100865.69;1728720;82;21168;-73
2020/12/09 07:15:32;;;;;;;8.20;5.30;;;;;;;6.19;44.81;100866.03;1722756;82;21250;-73
2020/12/09 07:17:59;;;;;;;8.35;6.20;;;;;;;6.20;44.77;100866.41;1713286;83;21178;-72
2020/12/09 07:20:27;;;;;;;7.42;5.75;;;;;;;6.22;44.81;100864.95;1700104;83;21178;-74
2020/12/09 07:22:54;;;;;;;8.75;6.50;;;;;;;6.24;44.75;100869.67;1725811;82;21187;-74
2020/12/09 07:25:22;;;;;;;7.67;5.65;;;;;;;6.24;44.75;100865.23;1718521;83;21280;-74
2020/12/09 07:27:51;;;;;;;8.33;5.85;;;;;;;6.27;44.79;100878.17;1710357;83;21115;-72
2020/12/09 07:30:19;;;;;;;8.60;5.70;;;;;;;6.28;44.72;100869.32;1738835;82;21159;-74
2020/12/09 07:32:48;;;;;;;8.43;5.83;;;;;;;6.29;44.75;100860.92;1730144;81;21162;-75
2020/12/09 07:35:17;;;;;;;9.20;6.40;;;;;;;6.32;45.51;100869.08;1719939;82;21166;-73
2020/12/09 07:37:50;;;;;;;7.53;5.12;;;;;;;6.34;45.63;100864.07;1721969;82;21293;-74
2020/12/09 07:40:29;;;;;;;8.88;5.95;;;;;;;6.36;45.63;100862.16;1716128;82;21922;-74
2020/12/09 07:43:10;;;;;;;7.10;5.67;;;;;;;6.36;45.62;100859.52;1724657;82;21202;-72
2020/12/09 07:45:43;;;;;;;7.55;6.08;;;;;;;6.37;45.54;100870.42;1729604;82;21150;-75
2020/12/09 07:48:15;;;;;;;7.28;5.37;;;;;;;6.39;45.54;100872.95;1716758;82;22097;-72
2020/12/09 07:50:50;;;;;;;7.85;5.95;;;;;;;6.40;45.48;100879.94;1728712;81;21348;-73
2020/12/09 07:53:18;;;;;;;7.70;6.12;;;;;;;6.41;45.44;100874.55;1731626;82;21592;-71
2020/12/09 07:55:45;;;;;;;7.42;5.55;;;;;;;6.41;45.38;100875.00;1728561;82;21127;-72
2020/12/09 07:58:16;;;;;;;8.83;6.05;;;;;;;6.42;45.30;100868.78;1710658;82;22147;-72
2020/12/09 08:00:48;;;;;;;11.95;6.70;;;;;;;6.42;45.32;100879.34;1724045;82;21201;-73
2020/12/09 08:03:22;;;;;;;8.15;5.95;;;;;;;6.43;45.22;100881.88;1709465;82;21260;-72
2020/12/09 08:05:51;;;;;;;7.87;5.67;;;;;;;6.43;45.16;100881.88;1719802;82;21174;-71
2020/12/09 08:08:23;;;;;;;9.18;6.08;;;;;;;6.44;45.12;100872.15;1727972;82;21130;-71
2020/12/09 08:10:51;;;;;;;8.85;6.60;;;;;;;6.44;45.15;100869.51;1733081;82;21170;-73
2020/12/09 08:13:22;;;;;;;8.65;6.17;;;;;;;6.46;45.13;100871.55;1724787;82;21213;-71
2020/12/09 08:16:11;;;;;;;7.80;5.83;;;;;;;6.47;45.11;100871.45;1732975;82;21382;-72
2020/12/09 08:18:38;;;;;;;9.70;7.05;;;;;;;6.48;45.08;100874.44;1733824;82;21166;-72
2020/12/09 08:21:06;;;;;;;9.98;6.87;;;;;;;6.50;45.02;100873.01;1733383;82;21248;-71
2020/12/09 08:23:46;;;;;;;9.88;7.05;;;;;;;6.52;45.04;100866.30;1733891;82;21182;-73
2020/12/09 08:26:33;;;;;;;7.58;5.67;;;;;;;6.53;45.00;100868.83;1718074;82;21736;-72
2020/12/09 08:29:01;;;;;;;9.23;6.20;;;;;;;6.54;44.97;100863.06;1731774;82;21205;-69
2020/12/09 08:31:29;;;;;;;8.88;6.47;;;;;;;6.55;44.95;100872.20;1722778;81;21197;-71
2020/12/09 08:33:57;;;;;;;8.50;6.20;;;;;;;6.56;44.89;100864.63;1726863;82;21609;-70
2020/12/09 08:36:24;;;;;;;9.33;6.75;;;;;;;6.58;44.88;100871.95;1732587;82;21204;-73
2020/12/09 08:39:00;;;;;;;8.95;6.42;;;;;;;6.59;44.89;100871.01;1735745;82;21170;-71
2020/12/09 08:41:33;;;;;;;8.35;6.33;;;;;;;6.61;44.83;100866.94;1719032;82;21756;-73
2020/12/09 08:44:07;;;;;;;7.83;5.80;;;;;;;6.62;44.83;100873.40;1726658;82;21190;-76
2020/12/09 08:46:35;;;;;;;10.25;6.92;;;;;;;6.64;44.81;100868.01;1716165;82;21173;-76
2020/12/09 08:49:03;;;;;;;8.55;6.12;;;;;;;6.65;44.78;100868.39;1726411;82;21617;-72
2020/12/09 08:51:33;;;;;;;8.60;6.45;;;;;;;6.66;44.76;100870.06;1732509;82;21653;-72
2020/12/09 08:54:04;;;;;;;8.85;7.20;;;;;;;6.68;44.74;100874.74;1728561;82;21387;-73
2020/12/09 08:56:32;;;;;;;8.88;6.03;;;;;;;6.69;44.72;100864.07;1748713;82;21180;-75
2020/12/09 08:59:00;;;;;;;10.05;6.37;;;;;;;6.71;44.66;100869.24;1731727;82;21214;-74
2020/12/09 09:01:28;;;;;;;8.08;6.17;;;;;;;6.73;44.69;100865.17;1731545;82;21152;-72
2020/12/09 09:03:59;;;;;;;9.00;6.00;;;;;;;6.74;44.62;100870.34;1731304;82;22212;-72
2020/12/09 09:06:26;;;;;;;9.23;6.70;;;;;;;6.75;44.62;100870.69;1732860;82;21435;-72
2020/12/09 09:08:54;;;;;;;8.30;6.15;;;;;;;6.76;44.58;100863.60;1717606;82;21207;-73
2020/12/09 09:11:25;;;;;;;9.13;6.72;;;;;;;6.77;44.57;100855.57;1726947;82;21440;-72
2020/12/09 09:13:53;;;;;;;9.05;6.85;;;;;;;6.77;44.60;100859.53;1732966;82;22042;-73
2020/12/09 09:16:21;;;;;;;8.58;6.80;;;;;;;6.69;44.59;100843.43;1749059;82;21180;-71
2020/12/09 09:18:49;;;;;;;8.53;6.62;;;;;;;6.79;44.57;100859.42;1727152;82;21380;-71
2020/12/09 09:21:16;;;;;;;8.43;6.55;;;;;;;6.79;44.58;100866.86;1733240;82;21656;-69
2020/12/09 09:23:44;;;;;;;9.23;6.50;;;;;;;6.81;44.55;100853.54;1711415;83;21245;-71
2020/12/09 09:26:14;;;;;;;9.93;6.58;;;;;;;6.82;44.55;100857.39;1719654;82;21222;-72
2020/12/09 09:28:42;;;;;;;9.38;6.37;;;;;;;6.85;44.53;100854.98;1780069;80;21154;-72
2020/12/09 09:31:10;;;;;;;9.68;6.65;;;;;;;6.86;44.47;100854.05;1763434;80;21465;-77
2020/12/09 09:33:38;;;;;;;8.88;6.55;;;;;;;6.87;44.47;100852.58;1773318;80;21170;-69
2020/12/09 09:36:07;;;;;;;8.28;6.12;;;;;;;6.89;44.50;100852.02;1775396;80;21158;-72
2020/12/09 09:38:34;;;;;;;8.08;6.37;;;;;;;6.93;44.48;100846.48;1771616;80;21174;-74
2020/12/09 09:41:02;;;;;;;8.60;6.50;;;;;;;6.95;44.53;100852.00;1780778;80;21142;-74
2020/12/09 09:43:31;;;;;;;10.60;6.78;;;;;;;6.99;44.50;100852.61;1780649;80;21370;-74
2020/12/09 09:46:00;;;;;;;9.93;6.80;;;;;;;7.00;44.39;100847.70;1776182;80;21162;-71
2020/12/09 09:48:28;;;;;;;8.60;5.87;;;;;;;7.02;44.48;100842.65;1772438;80;21419;-70
2020/12/09 09:50:55;;;;;;;9.50;7.05;;;;;;;6.97;44.39;100838.67;1767752;80;21165;-73
2020/12/09 09:53:22;;;;;;;8.80;5.85;;;;;;;7.06;44.35;100856.47;1767258;80;21146;-73
2020/12/09 09:55:50;;;;;;;10.80;7.33;;;;;;;7.08;44.29;100846.63;1764050;80;21385;-73
2020/12/09 09:58:17;;;;;;;8.10;6.30;;;;;;;7.09;44.27;100849.15;1758139;80;21154;-72
2020/12/09 10:00:45;;;;;;;8.00;6.25;;;;;;;7.11;44.25;100854.78;1751962;80;21158;-71
2020/12/09 10:03:13;;;;;;;8.45;6.10;;;;;;;7.09;44.24;100845.19;1762167;80;21264;-71
2020/12/09 10:05:40;;;;;;;8.25;6.28;;;;;;;7.12;44.29;100851.20;1778027;80;21554;-72
2020/12/09 10:08:08;;;;;;;8.70;6.17;;;;;;;7.12;44.29;100848.06;1756458;80;22335;-73
2020/12/09 10:10:35;;;;;;;9.65;6.55;;;;;;;7.13;44.27;100853.73;1779494;80;21129;-72
2020/12/09 10:13:02;;;;;;;8.70;6.28;;;;;;;7.16;44.23;100850.83;1775352;80;21428;-71
2020/12/09 10:15:30;;;;;;;9.68;6.62;;;;;;;7.17;44.21;100841.95;1771079;80;21138;-72
2020/12/09 10:17:57;;;;;;;9.15;5.97;;;;;;;7.18;44.17;100841.46;1762280;80;21181;-72
2020/12/09 10:20:25;;;;;;;9.85;6.90;;;;;;;7.18;44.14;100842.30;1771473;80;22080;-72
2020/12/09 10:22:53;;;;;;;8.60;6.15;;;;;;;7.11;44.13;100827.90;1778262;80;21158;-71
2020/12/09 10:25:23;;;;;;;8.88;6.45;;;;;;;7.19;44.07;100841.34;1766036;79;21210;-72
2020/12/09 10:27:51;;;;;;;7.58;6.05;;;;;;;7.20;44.07;100836.90;1758644;80;21185;-72
2020/12/09 10:30:18;;;;;;;8.65;6.03;;;;;;;7.18;44.21;100841.46;1767030;80;21118;-76
2020/12/09 10:32:47;;;;;;;9.85;6.65;;;;;;;7.21;45.05;100833.31;1765502;80;22299;-74
2020/12/09 10:35:16;;;;;;;9.05;6.72;;;;;;;7.25;45.89;100829.46;1774605;80;21190;-73
2020/12/09 10:37:43;;;;;;;8.95;7.25;;;;;;;7.31;47.96;100834.27;1767707;80;21191;-76
2020/12/09 10:40:11;;;;;;;8.68;6.70;;;;;;;7.34;49.60;100838.00;1771301;80;21154;-74
2020/12/09 10:42:38;;;;;;;12.05;7.35;;;;;;;7.39;50.04;100833.66;1775820;80;21146;-75
2020/12/09 10:45:06;;;;;;;10.95;7.03;;;;;;;7.42;50.09;100838.72;1768515;80;23526;-76
2020/12/09 10:47:33;;;;;;;11.38;7.65;;;;;;;7.43;49.96;100835.09;1762188;80;21197;-72
2020/12/09 10:50:04;;;;;;;10.60;7.15;;;;;;;7.44;49.68;100835.47;1780265;80;21154;-73
2020/12/09 10:54:06;;;;;;;52.10;38.02;;;;;;;7.51;52.64;100800.95;1811960;75;26769;-73
2020/12/09 10:56:34;;;;;;;47.03;36.48;;;;;;;7.62;58.82;100839.28;1793866;77;21130;-71
2020/12/09 10:59:02;;;;;;;52.15;39.18;;;;;;;7.83;55.55;100835.41;1791168;78;23075;-71
2020/12/09 11:01:32;;;;;;;53.92;40.65;;;;;;;7.92;55.57;100834.30;1792245;78;21193;-72
2020/12/09 11:04:00;;;;;;;53.60;42.08;;;;;;;7.96;56.04;100821.17;1774987;78;21193;-72
2020/12/09 11:06:30;;;;;;;51.92;39.48;;;;;;;7.98;56.42;100830.69;1787908;77;21158;-71
2020/12/09 11:08:58;;;;;;;50.28;39.53;;;;;;;8.00;56.49;100826.11;1799007;78;21197;-72
2020/12/09 11:11:26;;;;;;;51.65;39.58;;;;;;;7.99;56.37;100823.58;1791601;78;21437;-73
2020/12/09 11:13:53;;;;;;;52.40;38.60;;;;;;;7.98;55.96;100829.36;1791658;78;21976;-73
2020/12/09 11:16:21;;;;;;;52.90;40.83;;;;;;;7.96;55.55;100819.39;1783655;78;21098;-70
2020/12/09 11:18:50;;;;;;;47.40;37.95;;;;;;;7.94;55.06;100821.32;1793850;78;21142;-71
2020/12/09 11:21:18;;;;;;;47.45;35.65;;;;;;;7.91;54.62;100824.20;1791553;79;21118;-71
2020/12/09 11:23:46;;;;;;;47.48;35.68;;;;;;;7.88;54.21;100823.98;1796734;77;22312;-70
2020/12/09 11:26:15;;;;;;;49.63;36.23;;;;;;;7.85;53.82;100826.03;1780780;79;21197;-71
2020/12/09 11:28:42;;;;;;;46.70;36.03;;;;;;;7.82;53.45;100825.80;1806365;77;21162;-71
2020/12/09 11:31:10;;;;;;;41.40;33.05;;;;;;;7.80;53.01;100825.55;1807786;78;21221;-70
2020/12/09 11:33:38;;;;;;;43.52;32.40;;;;;;;7.76;52.70;100824.12;1796945;77;21138;-71
2020/12/09 11:36:05;;;;;;;41.18;32.17;;;;;;;7.74;52.38;100821.59;1796780;77;21329;-70
2020/12/09 11:38:32;;;;;;;38.88;31.27;;;;;;;7.72;52.08;100820.05;1793590;78;21157;-70
2020/12/09 11:41:00;;;;;;;40.08;30.90;;;;;;;7.69;51.80;100822.46;1789678;78;21170;-70
2020/12/09 11:43:28;;;;;;;38.88;30.35;;;;;;;7.67;51.54;100821.26;1809226;78;21177;-71
2020/12/09 11:45:57;;;;;;;39.15;29.42;;;;;;;7.64;51.30;100811.40;1796138;77;21197;-71
2020/12/09 11:48:25;;;;;;;38.17;29.65;;;;;;;7.63;51.08;100816.31;1799973;77;22268;-69